sensor_id;sensor_type;location;lat;lon;timestamp;P1;durP1;ratioP1;P2;durP2;ratioP2
17251;SDS011;8742;51.716;8.790;2023-09-19T00:00:55;3.60;;;2.00;;
17251;SDS011;8742;51.716;8.790;2023-09-19T00:03:23;6.10;;;2.37;;
17251;SDS011;8742;51.716;8.790;2023-09-19T00:05:52;3.43;;;1.80;;
17251;SDS011;8742;51.716;8.790;2023-09-19T00:08:20;4.50;;;2.00;;
17251;SDS011;8742;51.716;8.790;2023-09-19T00:10:50;4.47;;;2.13;;
17251;SDS011;8742;51.716;8.790;2023-09-19T00:13:18;4.73;;;2.30;;
17251;SDS011;8742;51.716;8.790;2023-09-19T00:15:46;4.33;;;2.40;;
17251;SDS011;8742;51.716;8.790;2023-09-19T00:18:14;3.07;;;2.10;;
17251;SDS011;8742;51.716;8.790;2023-09-19T00:20:42;6.33;;;2.40;;
17251;SDS011;8742;51.716;8.790;2023-09-19T00:23:14;3.07;;;2.30;;
17251;SDS011;8742;51.716;8.790;2023-09-19T00:25:40;3.70;;;2.30;;
17251;SDS011;8742;51.716;8.790;2023-09-19T00:28:07;5.00;;;2.20;;
17251;SDS011;8742;51.716;8.790;2023-09-19T00:30:34;4.30;;;2.50;;
17251;SDS011;8742;51.716;8.790;2023-09-19T00:33:03;3.07;;;2.47;;
17251;SDS011;8742;51.716;8.790;2023-09-19T00:35:32;3.57;;;2.43;;
17251;SDS011;8742;51.716;8.790;2023-09-19T00:37:59;5.60;;;2.60;;
17251;SDS011;8742;51.716;8.790;2023-09-19T00:40:28;3.67;;;2.30;;
17251;SDS011;8742;51.716;8.790;2023-09-19T00:42:57;3.03;;;2.33;;
17251;SDS011;8742;51.716;8.790;2023-09-19T00:45:25;4.17;;;2.40;;
17251;SDS011;8742;51.716;8.790;2023-09-19T00:47:53;4.23;;;2.67;;
17251;SDS011;8742;51.716;8.790;2023-09-19T00:50:22;2.87;;;2.53;;
17251;SDS011;8742;51.716;8.790;2023-09-19T00:52:50;4.87;;;2.60;;
17251;SDS011;8742;51.716;8.790;2023-09-19T00:55:21;3.07;;;2.37;;
17251;SDS011;8742;51.716;8.790;2023-09-19T00:57:51;2.63;;;2.37;;
17251;SDS011;8742;51.716;8.790;2023-09-19T01:00:18;5.97;;;2.60;;
17251;SDS011;8742;51.716;8.790;2023-09-19T01:02:46;6.23;;;2.60;;
17251;SDS011;8742;51.716;8.790;2023-09-19T01:05:13;2.57;;;2.33;;
17251;SDS011;8742;51.716;8.790;2023-09-19T01:07:40;2.90;;;2.40;;
17251;SDS011;8742;51.716;8.790;2023-09-19T01:10:10;5.20;;;2.50;;
17251;SDS011;8742;51.716;8.790;2023-09-19T01:12:42;5.37;;;2.60;;
17251;SDS011;8742;51.716;8.790;2023-09-19T01:15:19;4.63;;;2.33;;
17251;SDS011;8742;51.716;8.790;2023-09-19T01:17:53;5.23;;;2.37;;
17251;SDS011;8742;51.716;8.790;2023-09-19T01:20:29;4.10;;;2.50;;
17251;SDS011;8742;51.716;8.790;2023-09-19T01:23:06;3.07;;;2.37;;
17251;SDS011;8742;51.716;8.790;2023-09-19T01:25:48;5.93;;;2.70;;
17251;SDS011;8742;51.716;8.790;2023-09-19T01:28:31;3.77;;;2.33;;
17251;SDS011;8742;51.716;8.790;2023-09-19T01:31:06;5.47;;;2.90;;
17251;SDS011;8742;51.716;8.790;2023-09-19T01:33:55;10.13;;;2.93;;
17251;SDS011;8742;51.716;8.790;2023-09-19T01:36:24;5.20;;;2.63;;
17251;SDS011;8742;51.716;8.790;2023-09-19T01:38:52;5.40;;;2.93;;
17251;SDS011;8742;51.716;8.790;2023-09-19T01:41:21;7.90;;;3.07;;
17251;SDS011;8742;51.716;8.790;2023-09-19T01:43:55;4.30;;;2.90;;
17251;SDS011;8742;51.716;8.790;2023-09-19T01:46:28;7.77;;;2.70;;
17251;SDS011;8742;51.716;8.790;2023-09-19T01:49:02;3.73;;;2.53;;
17251;SDS011;8742;51.716;8.790;2023-09-19T01:51:42;5.90;;;3.03;;
17251;SDS011;8742;51.716;8.790;2023-09-19T01:54:16;6.93;;;2.83;;
17251;SDS011;8742;51.716;8.790;2023-09-19T01:56:51;5.97;;;2.43;;
17251;SDS011;8742;51.716;8.790;2023-09-19T01:59:24;4.87;;;2.50;;
17251;SDS011;8742;51.716;8.790;2023-09-19T02:01:57;3.03;;;2.20;;
17251;SDS011;8742;51.716;8.790;2023-09-19T02:04:25;3.70;;;2.50;;
17251;SDS011;8742;51.716;8.790;2023-09-19T02:06:53;6.90;;;2.60;;
17251;SDS011;8742;51.716;8.790;2023-09-19T02:09:20;4.90;;;2.27;;
17251;SDS011;8742;51.716;8.790;2023-09-19T02:11:47;8.90;;;2.20;;
17251;SDS011;8742;51.716;8.790;2023-09-19T02:14:14;5.80;;;2.37;;
17251;SDS011;8742;51.716;8.790;2023-09-19T02:16:41;6.27;;;2.90;;
17251;SDS011;8742;51.716;8.790;2023-09-19T02:19:09;5.73;;;2.60;;
17251;SDS011;8742;51.716;8.790;2023-09-19T02:21:36;7.00;;;2.60;;
17251;SDS011;8742;51.716;8.790;2023-09-19T02:24:05;4.97;;;2.93;;
17251;SDS011;8742;51.716;8.790;2023-09-19T02:26:32;8.00;;;2.40;;
17251;SDS011;8742;51.716;8.790;2023-09-19T02:29:01;9.20;;;2.37;;
17251;SDS011;8742;51.716;8.790;2023-09-19T02:31:29;9.93;;;2.70;;
17251;SDS011;8742;51.716;8.790;2023-09-19T02:33:56;4.47;;;2.73;;
17251;SDS011;8742;51.716;8.790;2023-09-19T02:36:26;7.27;;;2.83;;
17251;SDS011;8742;51.716;8.790;2023-09-19T02:38:55;11.07;;;2.70;;
17251;SDS011;8742;51.716;8.790;2023-09-19T02:41:22;9.30;;;2.50;;
17251;SDS011;8742;51.716;8.790;2023-09-19T02:43:49;7.63;;;2.60;;
17251;SDS011;8742;51.716;8.790;2023-09-19T02:46:16;4.57;;;2.50;;
17251;SDS011;8742;51.716;8.790;2023-09-19T02:48:43;5.53;;;2.97;;
17251;SDS011;8742;51.716;8.790;2023-09-19T02:51:10;9.30;;;3.03;;
17251;SDS011;8742;51.716;8.790;2023-09-19T02:53:38;7.93;;;2.53;;
17251;SDS011;8742;51.716;8.790;2023-09-19T02:56:05;13.40;;;3.00;;
17251;SDS011;8742;51.716;8.790;2023-09-19T02:58:32;14.60;;;3.33;;
17251;SDS011;8742;51.716;8.790;2023-09-19T03:01:07;7.17;;;2.37;;
17251;SDS011;8742;51.716;8.790;2023-09-19T03:03:34;4.23;;;2.20;;
17251;SDS011;8742;51.716;8.790;2023-09-19T03:06:02;6.63;;;2.53;;
17251;SDS011;8742;51.716;8.790;2023-09-19T03:08:29;5.50;;;2.70;;
17251;SDS011;8742;51.716;8.790;2023-09-19T03:10:58;7.00;;;2.70;;
17251;SDS011;8742;51.716;8.790;2023-09-19T03:13:27;6.17;;;2.60;;
17251;SDS011;8742;51.716;8.790;2023-09-19T03:15:56;13.03;;;2.93;;
17251;SDS011;8742;51.716;8.790;2023-09-19T03:18:23;10.90;;;2.93;;
17251;SDS011;8742;51.716;8.790;2023-09-19T03:20:54;10.93;;;3.03;;
17251;SDS011;8742;51.716;8.790;2023-09-19T03:23:22;8.17;;;3.20;;
17251;SDS011;8742;51.716;8.790;2023-09-19T03:25:49;7.83;;;2.47;;
17251;SDS011;8742;51.716;8.790;2023-09-19T03:28:18;8.17;;;2.50;;
17251;SDS011;8742;51.716;8.790;2023-09-19T03:30:47;11.17;;;3.30;;
17251;SDS011;8742;51.716;8.790;2023-09-19T03:33:24;8.13;;;3.17;;
17251;SDS011;8742;51.716;8.790;2023-09-19T03:35:51;10.17;;;2.83;;
17251;SDS011;8742;51.716;8.790;2023-09-19T03:38:19;9.93;;;3.00;;
17251;SDS011;8742;51.716;8.790;2023-09-19T03:40:46;5.40;;;2.50;;
17251;SDS011;8742;51.716;8.790;2023-09-19T03:43:13;10.67;;;2.90;;
17251;SDS011;8742;51.716;8.790;2023-09-19T03:45:42;8.40;;;2.80;;
17251;SDS011;8742;51.716;8.790;2023-09-19T03:48:08;6.47;;;2.80;;
17251;SDS011;8742;51.716;8.790;2023-09-19T03:50:36;13.90;;;2.90;;
17251;SDS011;8742;51.716;8.790;2023-09-19T03:53:03;8.63;;;2.40;;
17251;SDS011;8742;51.716;8.790;2023-09-19T03:55:30;10.17;;;2.60;;
17251;SDS011;8742;51.716;8.790;2023-09-19T03:57:57;10.27;;;2.90;;
17251;SDS011;8742;51.716;8.790;2023-09-19T04:00:24;10.87;;;2.90;;
17251;SDS011;8742;51.716;8.790;2023-09-19T04:02:52;14.57;;;2.73;;
17251;SDS011;8742;51.716;8.790;2023-09-19T04:05:21;10.63;;;2.83;;
17251;SDS011;8742;51.716;8.790;2023-09-19T04:07:48;13.20;;;3.10;;
17251;SDS011;8742;51.716;8.790;2023-09-19T04:10:15;13.67;;;2.97;;
17251;SDS011;8742;51.716;8.790;2023-09-19T04:12:50;8.70;;;3.17;;
17251;SDS011;8742;51.716;8.790;2023-09-19T04:15:18;10.33;;;2.77;;
17251;SDS011;8742;51.716;8.790;2023-09-19T04:17:44;9.13;;;2.90;;
17251;SDS011;8742;51.716;8.790;2023-09-19T04:20:13;10.90;;;2.57;;
17251;SDS011;8742;51.716;8.790;2023-09-19T04:22:41;7.97;;;2.60;;
17251;SDS011;8742;51.716;8.790;2023-09-19T04:25:08;12.00;;;2.63;;
17251;SDS011;8742;51.716;8.790;2023-09-19T04:27:35;9.57;;;2.57;;
17251;SDS011;8742;51.716;8.790;2023-09-19T04:30:02;9.40;;;2.70;;
17251;SDS011;8742;51.716;8.790;2023-09-19T04:32:35;13.33;;;3.13;;
17251;SDS011;8742;51.716;8.790;2023-09-19T04:35:04;12.17;;;2.57;;
17251;SDS011;8742;51.716;8.790;2023-09-19T04:37:36;9.57;;;3.00;;
17251;SDS011;8742;51.716;8.790;2023-09-19T04:40:05;11.93;;;2.70;;
17251;SDS011;8742;51.716;8.790;2023-09-19T04:42:37;10.90;;;3.17;;
17251;SDS011;8742;51.716;8.790;2023-09-19T04:45:05;10.30;;;3.03;;
17251;SDS011;8742;51.716;8.790;2023-09-19T04:47:33;10.70;;;2.90;;
17251;SDS011;8742;51.716;8.790;2023-09-19T04:50:00;9.93;;;2.90;;
17251;SDS011;8742;51.716;8.790;2023-09-19T04:52:28;15.87;;;2.80;;
17251;SDS011;8742;51.716;8.790;2023-09-19T04:54:58;6.53;;;3.03;;
17251;SDS011;8742;51.716;8.790;2023-09-19T04:57:25;10.57;;;3.00;;
17251;SDS011;8742;51.716;8.790;2023-09-19T04:59:53;11.23;;;2.97;;
17251;SDS011;8742;51.716;8.790;2023-09-19T05:02:20;11.83;;;2.87;;
17251;SDS011;8742;51.716;8.790;2023-09-19T05:04:47;12.90;;;2.87;;
17251;SDS011;8742;51.716;8.790;2023-09-19T05:07:14;10.77;;;2.97;;
17251;SDS011;8742;51.716;8.790;2023-09-19T05:09:42;17.43;;;2.80;;
17251;SDS011;8742;51.716;8.790;2023-09-19T05:12:10;13.53;;;3.37;;
17251;SDS011;8742;51.716;8.790;2023-09-19T05:14:37;9.87;;;3.20;;
17251;SDS011;8742;51.716;8.790;2023-09-19T05:17:05;14.57;;;3.13;;
17251;SDS011;8742;51.716;8.790;2023-09-19T05:19:32;7.83;;;2.87;;
17251;SDS011;8742;51.716;8.790;2023-09-19T05:22:00;7.03;;;2.47;;
17251;SDS011;8742;51.716;8.790;2023-09-19T05:24:29;9.77;;;2.80;;
17251;SDS011;8742;51.716;8.790;2023-09-19T05:26:56;11.57;;;2.90;;
17251;SDS011;8742;51.716;8.790;2023-09-19T05:29:24;9.60;;;3.00;;
17251;SDS011;8742;51.716;8.790;2023-09-19T05:31:51;11.20;;;2.83;;
17251;SDS011;8742;51.716;8.790;2023-09-19T05:34:19;14.87;;;2.73;;
17251;SDS011;8742;51.716;8.790;2023-09-19T05:36:46;8.03;;;3.00;;
17251;SDS011;8742;51.716;8.790;2023-09-19T05:39:14;9.00;;;3.23;;
17251;SDS011;8742;51.716;8.790;2023-09-19T05:41:41;14.40;;;2.90;;
17251;SDS011;8742;51.716;8.790;2023-09-19T05:44:07;8.97;;;2.83;;
17251;SDS011;8742;51.716;8.790;2023-09-19T05:46:36;9.73;;;2.73;;
17251;SDS011;8742;51.716;8.790;2023-09-19T05:49:02;8.83;;;2.97;;
17251;SDS011;8742;51.716;8.790;2023-09-19T05:51:29;10.40;;;2.70;;
17251;SDS011;8742;51.716;8.790;2023-09-19T05:53:56;8.20;;;2.43;;
17251;SDS011;8742;51.716;8.790;2023-09-19T05:56:23;12.80;;;3.23;;
17251;SDS011;8742;51.716;8.790;2023-09-19T05:58:50;9.50;;;2.60;;
17251;SDS011;8742;51.716;8.790;2023-09-19T06:01:18;8.53;;;3.00;;
17251;SDS011;8742;51.716;8.790;2023-09-19T06:03:46;8.43;;;2.87;;
17251;SDS011;8742;51.716;8.790;2023-09-19T06:06:13;10.63;;;2.87;;
17251;SDS011;8742;51.716;8.790;2023-09-19T06:08:40;7.93;;;2.60;;
17251;SDS011;8742;51.716;8.790;2023-09-19T06:11:09;13.20;;;3.33;;
17251;SDS011;8742;51.716;8.790;2023-09-19T06:13:36;9.23;;;2.67;;
17251;SDS011;8742;51.716;8.790;2023-09-19T06:16:04;11.93;;;3.17;;
17251;SDS011;8742;51.716;8.790;2023-09-19T06:18:31;8.37;;;3.13;;
17251;SDS011;8742;51.716;8.790;2023-09-19T06:21:00;12.57;;;2.97;;
17251;SDS011;8742;51.716;8.790;2023-09-19T06:23:30;7.57;;;2.80;;
17251;SDS011;8742;51.716;8.790;2023-09-19T06:25:57;9.30;;;3.00;;
17251;SDS011;8742;51.716;8.790;2023-09-19T06:28:24;13.10;;;3.33;;
17251;SDS011;8742;51.716;8.790;2023-09-19T06:30:53;8.77;;;2.80;;
17251;SDS011;8742;51.716;8.790;2023-09-19T06:33:20;11.10;;;3.17;;
17251;SDS011;8742;51.716;8.790;2023-09-19T06:35:47;12.20;;;3.03;;
17251;SDS011;8742;51.716;8.790;2023-09-19T06:38:15;10.37;;;2.60;;
17251;SDS011;8742;51.716;8.790;2023-09-19T06:40:44;7.97;;;2.97;;
17251;SDS011;8742;51.716;8.790;2023-09-19T06:43:11;16.13;;;3.23;;
17251;SDS011;8742;51.716;8.790;2023-09-19T06:45:39;13.17;;;3.03;;
17251;SDS011;8742;51.716;8.790;2023-09-19T06:48:06;11.43;;;3.27;;
17251;SDS011;8742;51.716;8.790;2023-09-19T06:50:35;10.13;;;2.90;;
17251;SDS011;8742;51.716;8.790;2023-09-19T06:53:02;9.43;;;2.40;;
17251;SDS011;8742;51.716;8.790;2023-09-19T06:55:30;7.60;;;2.63;;
17251;SDS011;8742;51.716;8.790;2023-09-19T06:57:57;14.33;;;3.10;;
17251;SDS011;8742;51.716;8.790;2023-09-19T07:00:24;9.67;;;2.60;;
17251;SDS011;8742;51.716;8.790;2023-09-19T07:02:54;5.70;;;2.90;;
17251;SDS011;8742;51.716;8.790;2023-09-19T07:05:23;6.80;;;2.73;;
17251;SDS011;8742;51.716;8.790;2023-09-19T07:07:52;8.13;;;2.20;;
17251;SDS011;8742;51.716;8.790;2023-09-19T07:10:19;8.57;;;2.53;;
17251;SDS011;8742;51.716;8.790;2023-09-19T07:12:54;7.37;;;2.83;;
17251;SDS011;8742;51.716;8.790;2023-09-19T07:15:22;9.30;;;2.97;;
17251;SDS011;8742;51.716;8.790;2023-09-19T07:17:50;16.80;;;3.13;;
17251;SDS011;8742;51.716;8.790;2023-09-19T07:20:18;8.17;;;2.60;;
17251;SDS011;8742;51.716;8.790;2023-09-19T07:22:45;9.37;;;2.63;;
17251;SDS011;8742;51.716;8.790;2023-09-19T07:25:13;6.27;;;2.83;;
17251;SDS011;8742;51.716;8.790;2023-09-19T07:27:40;11.13;;;3.40;;
17251;SDS011;8742;51.716;8.790;2023-09-19T07:30:09;15.27;;;2.90;;
17251;SDS011;8742;51.716;8.790;2023-09-19T07:32:36;7.87;;;2.53;;
17251;SDS011;8742;51.716;8.790;2023-09-19T07:35:06;11.20;;;3.17;;
17251;SDS011;8742;51.716;8.790;2023-09-19T07:37:40;8.13;;;2.87;;
17251;SDS011;8742;51.716;8.790;2023-09-19T07:40:07;12.23;;;3.43;;
17251;SDS011;8742;51.716;8.790;2023-09-19T07:42:34;12.30;;;3.47;;
17251;SDS011;8742;51.716;8.790;2023-09-19T07:45:10;9.07;;;2.73;;
17251;SDS011;8742;51.716;8.790;2023-09-19T07:47:43;13.33;;;3.23;;
17251;SDS011;8742;51.716;8.790;2023-09-19T07:50:13;12.80;;;3.07;;
17251;SDS011;8742;51.716;8.790;2023-09-19T07:52:44;8.97;;;3.07;;
17251;SDS011;8742;51.716;8.790;2023-09-19T07:55:11;12.07;;;3.20;;
17251;SDS011;8742;51.716;8.790;2023-09-19T07:57:42;9.20;;;2.70;;
17251;SDS011;8742;51.716;8.790;2023-09-19T08:00:13;11.60;;;3.40;;
17251;SDS011;8742;51.716;8.790;2023-09-19T08:02:41;13.03;;;2.77;;
17251;SDS011;8742;51.716;8.790;2023-09-19T08:05:09;11.30;;;2.80;;
17251;SDS011;8742;51.716;8.790;2023-09-19T08:07:43;9.33;;;2.67;;
17251;SDS011;8742;51.716;8.790;2023-09-19T08:10:13;10.00;;;3.10;;
17251;SDS011;8742;51.716;8.790;2023-09-19T08:12:43;8.63;;;3.17;;
17251;SDS011;8742;51.716;8.790;2023-09-19T08:15:14;8.90;;;3.20;;
17251;SDS011;8742;51.716;8.790;2023-09-19T08:17:41;8.63;;;3.37;;
17251;SDS011;8742;51.716;8.790;2023-09-19T08:20:09;10.83;;;3.10;;
17251;SDS011;8742;51.716;8.790;2023-09-19T08:22:41;8.53;;;2.67;;
17251;SDS011;8742;51.716;8.790;2023-09-19T08:25:11;9.83;;;3.20;;
17251;SDS011;8742;51.716;8.790;2023-09-19T08:27:38;9.67;;;3.20;;
17251;SDS011;8742;51.716;8.790;2023-09-19T08:30:09;6.50;;;2.80;;
17251;SDS011;8742;51.716;8.790;2023-09-19T08:32:38;10.30;;;2.80;;
17251;SDS011;8742;51.716;8.790;2023-09-19T08:35:07;7.43;;;2.60;;
17251;SDS011;8742;51.716;8.790;2023-09-19T08:37:34;12.97;;;3.30;;
17251;SDS011;8742;51.716;8.790;2023-09-19T08:40:01;10.27;;;3.27;;
17251;SDS011;8742;51.716;8.790;2023-09-19T08:42:28;10.47;;;3.10;;
17251;SDS011;8742;51.716;8.790;2023-09-19T08:44:55;6.07;;;2.93;;
17251;SDS011;8742;51.716;8.790;2023-09-19T08:47:26;12.33;;;3.60;;
17251;SDS011;8742;51.716;8.790;2023-09-19T08:50:03;9.93;;;2.70;;
17251;SDS011;8742;51.716;8.790;2023-09-19T08:52:41;9.87;;;3.43;;
17251;SDS011;8742;51.716;8.790;2023-09-19T08:55:11;9.73;;;3.13;;
17251;SDS011;8742;51.716;8.790;2023-09-19T08:57:45;14.07;;;3.67;;
17251;SDS011;8742;51.716;8.790;2023-09-19T09:00:16;7.93;;;3.17;;
17251;SDS011;8742;51.716;8.790;2023-09-19T09:02:45;8.03;;;3.33;;
17251;SDS011;8742;51.716;8.790;2023-09-19T09:05:15;10.80;;;3.33;;
17251;SDS011;8742;51.716;8.790;2023-09-19T09:07:47;13.53;;;3.57;;
17251;SDS011;8742;51.716;8.790;2023-09-19T09:10:15;18.17;;;3.90;;
17251;SDS011;8742;51.716;8.790;2023-09-19T09:12:42;17.37;;;3.60;;
17251;SDS011;8742;51.716;8.790;2023-09-19T09:15:09;13.30;;;3.43;;
17251;SDS011;8742;51.716;8.790;2023-09-19T09:17:41;9.00;;;3.40;;
17251;SDS011;8742;51.716;8.790;2023-09-19T09:20:10;23.33;;;3.43;;
17251;SDS011;8742;51.716;8.790;2023-09-19T09:22:39;15.30;;;3.53;;
17251;SDS011;8742;51.716;8.790;2023-09-19T09:25:17;12.00;;;3.03;;
17251;SDS011;8742;51.716;8.790;2023-09-19T09:27:45;10.30;;;3.60;;
17251;SDS011;8742;51.716;8.790;2023-09-19T09:30:32;15.47;;;3.67;;
17251;SDS011;8742;51.716;8.790;2023-09-19T09:33:09;7.87;;;3.20;;
17251;SDS011;8742;51.716;8.790;2023-09-19T09:35:37;11.40;;;3.50;;
17251;SDS011;8742;51.716;8.790;2023-09-19T09:38:08;14.13;;;3.70;;
17251;SDS011;8742;51.716;8.790;2023-09-19T09:40:45;11.20;;;3.63;;
17251;SDS011;8742;51.716;8.790;2023-09-19T09:43:24;12.57;;;3.53;;
17251;SDS011;8742;51.716;8.790;2023-09-19T09:46:07;12.70;;;3.30;;
17251;SDS011;8742;51.716;8.790;2023-09-19T09:48:57;12.70;;;3.53;;
17251;SDS011;8742;51.716;8.790;2023-09-19T09:51:43;8.17;;;2.90;;
17251;SDS011;8742;51.716;8.790;2023-09-19T09:54:15;10.07;;;3.37;;
17251;SDS011;8742;51.716;8.790;2023-09-19T09:56:53;14.87;;;3.10;;
17251;SDS011;8742;51.716;8.790;2023-09-19T09:59:28;12.13;;;3.03;;
17251;SDS011;8742;51.716;8.790;2023-09-19T10:02:16;9.00;;;2.77;;
17251;SDS011;8742;51.716;8.790;2023-09-19T10:04:49;10.17;;;3.40;;
17251;SDS011;8742;51.716;8.790;2023-09-19T10:07:27;9.00;;;3.03;;
17251;SDS011;8742;51.716;8.790;2023-09-19T10:10:02;7.37;;;2.83;;
17251;SDS011;8742;51.716;8.790;2023-09-19T10:12:42;7.90;;;2.57;;
17251;SDS011;8742;51.716;8.790;2023-09-19T10:15:11;10.70;;;3.20;;
17251;SDS011;8742;51.716;8.790;2023-09-19T10:17:43;10.77;;;3.13;;
17251;SDS011;8742;51.716;8.790;2023-09-19T10:20:13;7.97;;;2.97;;
17251;SDS011;8742;51.716;8.790;2023-09-19T10:22:52;6.77;;;2.80;;
17251;SDS011;8742;51.716;8.790;2023-09-19T10:25:25;10.57;;;2.93;;
17251;SDS011;8742;51.716;8.790;2023-09-19T10:27:55;10.07;;;3.03;;
17251;SDS011;8742;51.716;8.790;2023-09-19T10:30:25;8.20;;;2.93;;
17251;SDS011;8742;51.716;8.790;2023-09-19T10:32:56;9.57;;;3.07;;
17251;SDS011;8742;51.716;8.790;2023-09-19T10:35:26;10.07;;;3.40;;
17251;SDS011;8742;51.716;8.790;2023-09-19T10:37:54;5.70;;;2.47;;
17251;SDS011;8742;51.716;8.790;2023-09-19T10:40:25;9.07;;;3.03;;
17251;SDS011;8742;51.716;8.790;2023-09-19T10:42:58;10.07;;;2.83;;
17251;SDS011;8742;51.716;8.790;2023-09-19T10:45:28;6.73;;;3.33;;
17251;SDS011;8742;51.716;8.790;2023-09-19T10:47:57;9.50;;;2.90;;
17251;SDS011;8742;51.716;8.790;2023-09-19T10:50:23;12.30;;;3.10;;
17251;SDS011;8742;51.716;8.790;2023-09-19T10:52:51;7.63;;;2.80;;
17251;SDS011;8742;51.716;8.790;2023-09-19T10:55:27;10.97;;;3.07;;
17251;SDS011;8742;51.716;8.790;2023-09-19T10:57:55;9.87;;;3.23;;
17251;SDS011;8742;51.716;8.790;2023-09-19T11:00:29;10.77;;;3.10;;
17251;SDS011;8742;51.716;8.790;2023-09-19T11:06:00;10.27;;;2.90;;
17251;SDS011;8742;51.716;8.790;2023-09-19T11:11:48;6.53;;;2.43;;
17251;SDS011;8742;51.716;8.790;2023-09-19T11:14:38;4.87;;;2.50;;
17251;SDS011;8742;51.716;8.790;2023-09-19T11:20:20;6.33;;;3.07;;
17251;SDS011;8742;51.716;8.790;2023-09-19T11:25:55;7.13;;;2.73;;
17251;SDS011;8742;51.716;8.790;2023-09-19T11:28:33;6.10;;;2.80;;
17251;SDS011;8742;51.716;8.790;2023-09-19T11:40:37;8.73;;;3.07;;
17251;SDS011;8742;51.716;8.790;2023-09-19T11:46:04;10.50;;;3.50;;
17251;SDS011;8742;51.716;8.790;2023-09-19T11:48:31;6.27;;;2.90;;
17251;SDS011;8742;51.716;8.790;2023-09-19T11:51:00;8.13;;;3.17;;
17251;SDS011;8742;51.716;8.790;2023-09-19T11:53:32;11.60;;;2.80;;
17251;SDS011;8742;51.716;8.790;2023-09-19T11:56:01;8.10;;;3.03;;
17251;SDS011;8742;51.716;8.790;2023-09-19T11:58:29;8.93;;;2.80;;
17251;SDS011;8742;51.716;8.790;2023-09-19T12:00:59;5.93;;;2.90;;
17251;SDS011;8742;51.716;8.790;2023-09-19T12:03:33;7.23;;;3.03;;
17251;SDS011;8742;51.716;8.790;2023-09-19T12:06:10;7.27;;;3.17;;
17251;SDS011;8742;51.716;8.790;2023-09-19T12:08:39;7.13;;;3.30;;
17251;SDS011;8742;51.716;8.790;2023-09-19T12:11:11;6.85;;;2.83;;
17251;SDS011;8742;51.716;8.790;2023-09-19T12:13:41;5.00;;;2.78;;
17251;SDS011;8742;51.716;8.790;2023-09-19T12:16:12;6.20;;;2.80;;
17251;SDS011;8742;51.716;8.790;2023-09-19T12:18:41;9.02;;;3.05;;
17251;SDS011;8742;51.716;8.790;2023-09-19T12:21:20;5.53;;;2.88;;
17251;SDS011;8742;51.716;8.790;2023-09-19T12:23:58;6.57;;;2.80;;
17251;SDS011;8742;51.716;8.790;2023-09-19T12:26:26;8.27;;;2.90;;
17251;SDS011;8742;51.716;8.790;2023-09-19T12:28:54;7.68;;;2.50;;
17251;SDS011;8742;51.716;8.790;2023-09-19T12:31:23;7.55;;;2.85;;
17251;SDS011;8742;51.716;8.790;2023-09-19T12:33:53;5.35;;;2.90;;
17251;SDS011;8742;51.716;8.790;2023-09-19T12:36:21;7.90;;;2.90;;
17251;SDS011;8742;51.716;8.790;2023-09-19T12:38:54;8.45;;;3.15;;
17251;SDS011;8742;51.716;8.790;2023-09-19T12:41:21;4.72;;;2.70;;
17251;SDS011;8742;51.716;8.790;2023-09-19T12:43:48;7.72;;;2.95;;
17251;SDS011;8742;51.716;8.790;2023-09-19T12:46:19;5.78;;;2.92;;
17251;SDS011;8742;51.716;8.790;2023-09-19T12:48:51;9.38;;;2.65;;
17251;SDS011;8742;51.716;8.790;2023-09-19T12:51:42;5.30;;;2.65;;
17251;SDS011;8742;51.716;8.790;2023-09-19T12:54:09;7.35;;;3.08;;
17251;SDS011;8742;51.716;8.790;2023-09-19T12:56:39;4.22;;;2.38;;
17251;SDS011;8742;51.716;8.790;2023-09-19T12:59:09;5.38;;;2.78;;
17251;SDS011;8742;51.716;8.790;2023-09-19T13:01:38;8.35;;;2.85;;
17251;SDS011;8742;51.716;8.790;2023-09-19T13:04:11;10.25;;;2.70;;
17251;SDS011;8742;51.716;8.790;2023-09-19T13:06:40;5.60;;;2.72;;
17251;SDS011;8742;51.716;8.790;2023-09-19T13:09:09;6.90;;;2.40;;
17251;SDS011;8742;51.716;8.790;2023-09-19T13:11:37;6.30;;;2.90;;
17251;SDS011;8742;51.716;8.790;2023-09-19T13:14:15;3.78;;;2.47;;
17251;SDS011;8742;51.716;8.790;2023-09-19T13:16:55;7.50;;;2.58;;
17251;SDS011;8742;51.716;8.790;2023-09-19T13:19:40;5.18;;;2.80;;
17251;SDS011;8742;51.716;8.790;2023-09-19T13:25:03;6.22;;;2.35;;
17251;SDS011;8742;51.716;8.790;2023-09-19T13:27:31;7.50;;;2.28;;
17251;SDS011;8742;51.716;8.790;2023-09-19T13:29:58;9.85;;;2.28;;
17251;SDS011;8742;51.716;8.790;2023-09-19T13:32:25;4.32;;;2.13;;
17251;SDS011;8742;51.716;8.790;2023-09-19T13:34:53;4.78;;;2.60;;
17251;SDS011;8742;51.716;8.790;2023-09-19T13:37:20;7.55;;;2.47;;
17251;SDS011;8742;51.716;8.790;2023-09-19T13:39:47;3.95;;;2.25;;
17251;SDS011;8742;51.716;8.790;2023-09-19T13:42:14;6.80;;;2.58;;
17251;SDS011;8742;51.716;8.790;2023-09-19T13:44:41;6.00;;;2.28;;
17251;SDS011;8742;51.716;8.790;2023-09-19T13:47:08;4.82;;;2.45;;
17251;SDS011;8742;51.716;8.790;2023-09-19T13:49:38;4.72;;;2.15;;
17251;SDS011;8742;51.716;8.790;2023-09-19T13:52:06;6.53;;;2.63;;
17251;SDS011;8742;51.716;8.790;2023-09-19T13:54:33;7.80;;;2.47;;
17251;SDS011;8742;51.716;8.790;2023-09-19T13:57:00;7.22;;;2.00;;
17251;SDS011;8742;51.716;8.790;2023-09-19T13:59:27;5.82;;;2.05;;
17251;SDS011;8742;51.716;8.790;2023-09-19T14:01:55;3.22;;;2.17;;
17251;SDS011;8742;51.716;8.790;2023-09-19T14:04:22;4.45;;;2.13;;
17251;SDS011;8742;51.716;8.790;2023-09-19T14:06:49;5.15;;;2.55;;
17251;SDS011;8742;51.716;8.790;2023-09-19T14:09:17;4.32;;;2.35;;
17251;SDS011;8742;51.716;8.790;2023-09-19T14:11:44;6.10;;;2.20;;
17251;SDS011;8742;51.716;8.790;2023-09-19T14:14:12;5.20;;;2.50;;
17251;SDS011;8742;51.716;8.790;2023-09-19T14:16:40;6.60;;;2.55;;
17251;SDS011;8742;51.716;8.790;2023-09-19T14:19:07;5.57;;;2.25;;
17251;SDS011;8742;51.716;8.790;2023-09-19T14:21:34;5.40;;;2.13;;
17251;SDS011;8742;51.716;8.790;2023-09-19T14:24:04;5.95;;;2.58;;
17251;SDS011;8742;51.716;8.790;2023-09-19T14:26:35;6.70;;;2.53;;
17251;SDS011;8742;51.716;8.790;2023-09-19T14:29:04;8.65;;;2.45;;
17251;SDS011;8742;51.716;8.790;2023-09-19T14:31:36;4.53;;;2.15;;
17251;SDS011;8742;51.716;8.790;2023-09-19T14:34:05;8.90;;;2.17;;
17251;SDS011;8742;51.716;8.790;2023-09-19T14:36:40;4.30;;;2.38;;
17251;SDS011;8742;51.716;8.790;2023-09-19T14:39:07;4.30;;;1.80;;
17251;SDS011;8742;51.716;8.790;2023-09-19T14:41:36;8.40;;;2.28;;
17251;SDS011;8742;51.716;8.790;2023-09-19T14:44:03;5.65;;;2.47;;
17251;SDS011;8742;51.716;8.790;2023-09-19T14:46:30;6.68;;;2.50;;
17251;SDS011;8742;51.716;8.790;2023-09-19T14:48:57;3.75;;;2.50;;
17251;SDS011;8742;51.716;8.790;2023-09-19T14:51:28;3.50;;;2.13;;
17251;SDS011;8742;51.716;8.790;2023-09-19T14:53:57;4.93;;;2.50;;
17251;SDS011;8742;51.716;8.790;2023-09-19T14:56:27;3.95;;;2.20;;
17251;SDS011;8742;51.716;8.790;2023-09-19T14:58:57;3.38;;;2.10;;
17251;SDS011;8742;51.716;8.790;2023-09-19T15:01:24;3.47;;;1.92;;
17251;SDS011;8742;51.716;8.790;2023-09-19T15:03:51;4.10;;;2.50;;
17251;SDS011;8742;51.716;8.790;2023-09-19T15:06:19;6.90;;;2.20;;
17251;SDS011;8742;51.716;8.790;2023-09-19T15:08:47;5.32;;;2.10;;
17251;SDS011;8742;51.716;8.790;2023-09-19T15:11:15;3.40;;;2.30;;
17251;SDS011;8742;51.716;8.790;2023-09-19T15:13:43;4.40;;;2.17;;
17251;SDS011;8742;51.716;8.790;2023-09-19T15:16:12;4.90;;;2.30;;
17251;SDS011;8742;51.716;8.790;2023-09-19T15:18:39;3.85;;;2.13;;
17251;SDS011;8742;51.716;8.790;2023-09-19T15:21:07;4.88;;;2.05;;
17251;SDS011;8742;51.716;8.790;2023-09-19T15:23:35;6.15;;;2.55;;
17251;SDS011;8742;51.716;8.790;2023-09-19T15:26:03;7.43;;;2.60;;
17251;SDS011;8742;51.716;8.790;2023-09-19T15:28:30;4.60;;;2.22;;
17251;SDS011;8742;51.716;8.790;2023-09-19T15:30:59;5.53;;;2.47;;
17251;SDS011;8742;51.716;8.790;2023-09-19T15:33:27;4.95;;;2.30;;
17251;SDS011;8742;51.716;8.790;2023-09-19T15:36:02;5.73;;;2.70;;
17251;SDS011;8742;51.716;8.790;2023-09-19T15:38:29;12.47;;;2.97;;
17251;SDS011;8742;51.716;8.790;2023-09-19T15:40:58;8.93;;;2.40;;